Time;durP1;ratioP1;P1;durP2;ratioP2;P2;SDS_P1;SDS_P2;PMS_P1;PMS_P2;Temp;Humidity;BMP_temperature;BMP_pressure;BME280_temperature;BME280_humidity;BME280_pressure;Samples;Min_cycle;Max_cycle;Signal;HPM_P1;HPM_P2
2022/08/02 00:00:14;;;;;;;58.00;8.95;;;;;;;22.26;100.00;98044.34;5007414;28;20426;-61
2022/08/02 00:02:44;;;;;;;35.15;7.10;;;;;;;22.13;100.00;98053.34;5007759;28;20049;-60
2022/08/02 00:05:10;;;;;;;45.50;7.78;;;;;;;21.98;100.00;98049.38;5008621;28;20036;-59
2022/08/02 00:07:36;;;;;;;29.73;6.25;;;;;;;21.82;100.00;98051.69;5007408;28;20030;-59
2022/08/02 00:10:02;;;;;;;47.17;7.78;;;;;;;22.21;100.00;98047.38;5008263;28;20106;-59
2022/08/02 00:12:28;;;;;;;35.05;6.57;;;;;;;21.36;100.00;98051.97;5008174;28;20037;-59
2022/08/02 00:14:53;;;;;;;42.90;7.38;;;;;;;21.58;100.00;98039.56;5007128;28;20029;-60
2022/08/02 00:17:18;;;;;;;43.83;7.75;;;;;;;21.73;100.00;98038.22;5008049;28;20116;-59
2022/08/02 00:19:44;;;;;;;39.20;7.07;;;;;;;22.16;100.00;98038.13;5009647;28;20059;-59
2022/08/02 00:22:10;;;;;;;34.58;6.55;;;;;;;22.51;100.00;98043.81;5005531;28;20562;-60
2022/08/02 00:24:35;;;;;;;31.13;6.05;;;;;;;22.54;100.00;98041.88;5007887;28;20043;-60
2022/08/02 00:27:02;;;;;;;45.58;7.65;;;;;;;22.58;100.00;98043.28;5005830;28;20399;-59
2022/08/02 00:29:29;;;;;;;43.05;8.32;;;;;;;22.01;100.00;98038.47;5006985;28;20025;-59
2022/08/02 00:31:55;;;;;;;37.05;7.22;;;;;;;22.01;100.00;98043.78;5005437;28;20048;-59
2022/08/02 00:34:20;;;;;;;46.30;7.95;;;;;;;21.98;100.00;98035.25;5008036;28;20070;-60
2022/08/02 00:36:45;;;;;;;38.53;7.15;;;;;;;22.05;100.00;98037.22;5008613;28;20582;-60
2022/08/02 00:39:11;;;;;;;34.22;6.50;;;;;;;22.04;100.00;98038.22;5009311;28;20025;-60
2022/08/02 00:41:47;;;;;;;47.05;8.18;;;;;;;22.09;100.00;98036.00;5005364;28;20042;-61
2022/08/02 00:44:17;;;;;;;34.78;6.80;;;;;;;22.08;100.00;98036.97;5007962;28;20084;-60
2022/08/02 00:46:43;;;;;;;42.85;7.70;;;;;;;21.92;100.00;98047.25;5007226;28;20037;-59
2022/08/02 00:49:09;;;;;;;34.85;6.90;;;;;;;21.98;100.00;98052.03;5007336;28;20029;-59
2022/08/02 00:51:35;;;;;;;45.92;7.80;;;;;;;21.99;100.00;98059.03;5006627;28;20068;-59
2022/08/02 00:54:00;;;;;;;37.40;7.05;;;;;;;22.25;100.00;98047.94;5010065;28;20033;-59
2022/08/02 00:56:26;;;;;;;39.08;7.30;;;;;;;22.32;100.00;98057.09;5009006;28;20026;-59
2022/08/02 00:58:51;;;;;;;36.20;6.70;;;;;;;21.91;100.00;98056.22;5008368;28;20075;-60
2022/08/02 01:01:16;;;;;;;35.50;6.95;;;;;;;21.69;100.00;98052.75;5008876;28;20091;-59
2022/08/02 01:03:43;;;;;;;34.53;7.30;;;;;;;21.50;100.00;98052.63;5007192;28;20113;-59
2022/08/02 01:06:09;;;;;;;38.58;7.20;;;;;;;21.03;100.00;98060.94;5007081;28;20118;-59
2022/08/02 01:08:34;;;;;;;36.97;7.38;;;;;;;20.91;100.00;98057.47;5008327;28;20049;-60
2022/08/02 01:10:59;;;;;;;39.30;7.00;;;;;;;21.59;100.00;98046.53;5006220;28;20398;-62
2022/08/02 01:13:26;;;;;;;35.72;6.63;;;;;;;21.52;100.00;98050.69;5008393;28;20196;-61
2022/08/02 01:16:00;;;;;;;39.75;7.05;;;;;;;21.45;100.00;98049.53;4990541;28;20205;-60
2022/08/02 01:18:37;;;;;;;40.17;7.40;;;;;;;21.58;100.00;98038.69;5008838;28;20049;-61
2022/08/02 01:21:27;;;;;;;43.63;7.88;;;;;;;21.20;100.00;98040.13;5007527;28;20407;-62
2022/08/02 01:24:19;;;;;;;34.83;7.03;;;;;;;21.98;100.00;98036.09;5007674;28;20029;-60
2022/08/02 01:27:06;;;;;;;36.92;6.40;;;;;;;21.48;100.00;98030.69;5007726;28;20517;-60
2022/08/02 01:29:40;;;;;;;39.78;7.35;;;;;;;21.31;100.00;98040.06;5009301;28;20033;-60
2022/08/02 01:32:13;;;;;;;39.28;6.68;;;;;;;21.91;100.00;98040.28;5006078;28;20033;-60
2022/08/02 01:34:44;;;;;;;41.47;7.53;;;;;;;21.70;100.00;98035.84;5008172;28;20029;-60
2022/08/02 01:37:17;;;;;;;37.70;7.20;;;;;;;21.47;100.00;98043.13;5007414;28;20030;-62
2022/08/02 01:39:45;;;;;;;38.83;6.90;;;;;;;21.26;100.00;98043.09;5007964;28;20025;-60
2022/08/02 01:42:12;;;;;;;42.58;7.40;;;;;;;21.09;100.00;98051.63;5005300;28;20037;-62
2022/08/02 01:44:41;;;;;;;37.47;6.63;;;;;;;21.39;100.00;98045.53;5008665;28;20041;-61
2022/08/02 01:47:16;;;;;;;41.95;6.75;;;;;;;21.36;100.00;98054.63;5006580;28;20038;-60
2022/08/02 01:49:45;;;;;;;43.38;7.28;;;;;;;21.52;100.00;98050.69;5006931;28;20104;-62
2022/08/02 01:52:21;;;;;;;40.20;7.00;;;;;;;20.88;100.00;98057.75;5006818;28;20045;-60
2022/08/02 01:54:55;;;;;;;34.53;6.60;;;;;;;20.72;100.00;98066.09;5007813;28;20399;-60
2022/08/02 01:57:23;;;;;;;45.65;7.72;;;;;;;20.84;100.00;98064.25;5007949;28;20426;-59
2022/08/02 01:59:50;;;;;;;45.30;7.40;;;;;;;20.67;100.00;98059.50;5005067;28;20049;-60
2022/08/02 02:02:17;;;;;;;37.47;7.13;;;;;;;20.44;100.00;98072.78;5005481;28;20058;-60
2022/08/02 02:04:45;;;;;;;33.63;6.82;;;;;;;20.52;100.00;98065.03;5005932;28;20792;-59
2022/08/02 02:07:14;;;;;;;45.17;7.80;;;;;;;20.08;100.00;98080.03;5007927;28;20092;-59
2022/08/02 02:09:41;;;;;;;45.45;7.47;;;;;;;20.27;100.00;98086.50;5005198;28;20036;-60
2022/08/02 02:12:10;;;;;;;38.72;7.00;;;;;;;20.57;100.00;98080.59;5004623;28;20697;-60
2022/08/02 02:14:36;;;;;;;48.10;7.82;;;;;;;20.75;100.00;98078.25;5004617;28;20040;-60
2022/08/02 02:17:03;;;;;;;46.20;7.47;;;;;;;20.78;100.00;98072.72;5006369;28;20049;-60
2022/08/02 02:19:30;;;;;;;36.22;6.85;;;;;;;20.42;100.00;98072.91;5008009;28;20029;-61
2022/08/02 02:21:56;;;;;;;36.78;6.47;;;;;;;20.97;100.00;98072.91;5004247;28;20155;-59
2022/08/02 02:24:21;;;;;;;38.83;7.38;;;;;;;20.49;100.00;98073.22;5006715;28;20036;-61
2022/08/02 02:26:47;;;;;;;44.90;7.90;;;;;;;20.47;100.00;98075.16;5007415;28;20644;-60
2022/08/02 02:29:15;;;;;;;43.95;7.75;;;;;;;20.66;100.00;98073.69;5006753;28;20800;-59
2022/08/02 02:31:43;;;;;;;48.33;8.50;;;;;;;20.87;100.00;98071.97;5004668;28;20037;-62
2022/08/02 02:34:22;;;;;;;34.15;6.80;;;;;;;20.60;100.00;98069.72;5007054;28;20060;-60
2022/08/02 02:36:50;;;;;;;50.33;8.52;;;;;;;20.62;100.00;98072.28;5005162;28;20037;-60
2022/08/02 02:39:21;;;;;;;42.25;7.53;;;;;;;20.74;100.00;98066.00;5005586;28;20033;-60
2022/08/02 02:41:48;;;;;;;41.08;7.47;;;;;;;20.54;100.00;98071.06;5005613;28;20057;-59
2022/08/02 02:44:18;;;;;;;46.03;7.88;;;;;;;20.49;100.00;98078.53;5005661;28;20025;-61
2022/08/02 02:46:44;;;;;;;35.42;7.28;;;;;;;20.46;100.00;98073.50;5005603;28;20044;-59
2022/08/02 02:49:11;;;;;;;49.42;7.80;;;;;;;20.59;100.00;98068.03;5006315;28;20056;-61
2022/08/02 02:51:41;;;;;;;44.35;8.02;;;;;;;20.61;100.00;98074.09;5005508;28;20143;-60
2022/08/02 02:54:10;;;;;;;37.40;7.20;;;;;;;20.91;100.00;98069.91;5007694;28;20304;-60
2022/08/02 02:56:40;;;;;;;30.30;6.32;;;;;;;20.77;100.00;98071.03;5004132;28;20046;-59
2022/08/02 02:59:07;;;;;;;47.03;8.20;;;;;;;20.64;100.00;98071.19;5006587;28;20033;-62
2022/08/02 03:01:33;;;;;;;52.72;8.68;;;;;;;20.59;100.00;98068.03;5004434;28;20587;-60
2022/08/02 03:04:01;;;;;;;41.25;7.47;;;;;;;20.53;100.00;98066.75;5006738;28;20029;-60
2022/08/02 03:06:28;;;;;;;38.30;6.95;;;;;;;20.72;100.00;98067.91;5007549;28;20030;-60
2022/08/02 03:08:54;;;;;;;37.47;7.28;;;;;;;20.54;100.00;98064.91;5010408;28;20018;-60
2022/08/02 03:11:20;;;;;;;43.45;7.80;;;;;;;20.72;100.00;98074.06;5006458;28;20103;-60
2022/08/02 03:13:45;;;;;;;35.05;6.90;;;;;;;21.04;100.00;98075.03;5008984;28;20030;-60
2022/08/02 03:16:11;;;;;;;43.53;8.20;;;;;;;20.32;100.00;98079.06;5008964;28;20809;-60
2022/08/02 03:18:40;;;;;;;41.97;7.53;;;;;;;19.87;100.00;98071.09;5012680;28;20076;-60
2022/08/02 03:21:12;;;;;;;43.50;7.53;;;;;;;19.63;100.00;98069.41;5007392;28;20165;-60
2022/08/02 03:23:40;;;;;;;42.60;6.88;;;;;;;20.02;100.00;98085.81;5012097;28;20029;-59
2022/08/02 03:26:06;;;;;;;43.20;7.18;;;;;;;20.95;100.00;98077.50;5007180;28;20038;-60
2022/08/02 03:28:32;;;;;;;41.33;6.85;;;;;;;21.20;100.00;98078.09;5009527;28;20028;-60
2022/08/02 03:30:57;;;;;;;36.92;6.82;;;;;;;20.76;100.00;98085.25;5008636;28;20049;-60
2022/08/02 03:33:25;;;;;;;42.95;7.75;;;;;;;20.48;100.00;98087.47;5008978;28;20044;-59
2022/08/02 03:35:53;;;;;;;34.95;7.15;;;;;;;20.52;100.00;98094.19;5008820;28;20156;-61
2022/08/02 03:38:21;;;;;;;33.53;6.82;;;;;;;20.43;100.00;98089.63;5007983;28;20103;-59
2022/08/02 03:40:47;;;;;;;40.63;7.50;;;;;;;20.45;100.00;98085.03;5009836;28;20038;-60
2022/08/02 03:43:14;;;;;;;40.97;7.35;;;;;;;20.43;100.00;98084.31;5010310;28;20153;-60
2022/08/02 03:45:46;;;;;;;39.75;7.60;;;;;;;20.23;100.00;98080.63;5007432;28;20030;-59
2022/08/02 03:48:13;;;;;;;44.15;7.70;;;;;;;20.15;100.00;98086.53;5005847;28;20048;-60
2022/08/02 03:50:39;;;;;;;40.67;7.05;;;;;;;19.96;100.00;98083.63;5007468;28;20038;-60
2022/08/02 03:53:06;;;;;;;42.13;7.35;;;;;;;20.63;100.00;98079.28;5007424;28;20043;-60
2022/08/02 03:55:33;;;;;;;42.97;7.50;;;;;;;20.92;100.00;98074.25;5010072;28;20037;-60
2022/08/02 03:57:58;;;;;;;43.80;7.68;;;;;;;20.75;100.00;98079.13;5009303;28;20025;-61
2022/08/02 04:00:24;;;;;;;39.22;6.47;;;;;;;21.13;100.00;98082.22;5008332;28;20049;-60
2022/08/02 04:02:49;;;;;;;40.15;7.10;;;;;;;21.28;100.00;98080.09;5008388;28;20068;-60
2022/08/02 04:05:16;;;;;;;39.78;6.50;;;;;;;21.06;100.00;98086.34;5007726;28;20663;-60
2022/08/02 04:07:42;;;;;;;37.05;7.47;;;;;;;20.48;100.00;98092.75;5007614;28;20041;-60
2022/08/02 04:10:08;;;;;;;55.28;8.90;;;;;;;20.34;100.00;98095.66;5008371;28;20946;-60
2022/08/02 04:12:34;;;;;;;39.63;7.38;;;;;;;20.71;100.00;98092.72;5007969;28;20021;-60
2022/08/02 04:15:01;;;;;;;42.72;7.78;;;;;;;20.79;100.00;98099.09;5009722;28;20074;-60
2022/08/02 04:17:29;;;;;;;33.20;6.68;;;;;;;21.19;100.00;98092.31;5008772;28;20044;-60
2022/08/02 04:20:00;;;;;;;46.35;8.07;;;;;;;21.49;100.00;98101.38;5010317;28;20029;-60
2022/08/02 04:22:34;;;;;;;36.92;7.22;;;;;;;21.33;100.00;98105.28;5006388;28;20045;-60
2022/08/02 04:25:01;;;;;;;47.08;7.90;;;;;;;21.42;100.00;98113.44;5022473;28;20090;-60
2022/08/02 04:27:29;;;;;;;38.03;7.18;;;;;;;21.52;100.00;98115.25;5006777;28;20041;-60
2022/08/02 04:29:56;;;;;;;34.80;6.90;;;;;;;22.20;100.00;98108.59;5008325;28;20032;-60
2022/08/02 04:32:22;;;;;;;26.75;6.00;;;;;;;22.19;100.00;98118.38;5009487;28;20059;-60
2022/08/02 04:34:48;;;;;;;33.90;6.10;;;;;;;21.70;100.00;98123.44;5009967;28;20025;-61
2022/08/02 04:37:14;;;;;;;45.33;7.75;;;;;;;22.18;100.00;98124.66;5007911;28;20042;-60
2022/08/02 04:39:40;;;;;;;34.13;6.47;;;;;;;22.17;100.00;98120.34;5008212;28;20053;-60
2022/08/02 04:42:06;;;;;;;38.38;7.15;;;;;;;21.54;100.00;98128.34;5007130;28;20426;-62
2022/08/02 04:44:31;;;;;;;24.85;5.45;;;;;;;21.79;100.00;98137.75;5008132;28;20752;-62
2022/08/02 04:47:01;;;;;;;35.33;6.55;;;;;;;22.19;100.00;98138.81;5009566;28;20052;-60
2022/08/02 04:49:30;;;;;;;35.88;6.97;;;;;;;21.78;100.00;98129.91;5007529;28;20025;-60
2022/08/02 04:51:55;;;;;;;38.95;7.13;;;;;;;21.95;100.00;98137.28;5008783;28;20139;-60
2022/08/02 04:54:21;;;;;;;40.17;7.25;;;;;;;21.63;100.00;98135.53;5006856;28;20140;-61
2022/08/02 04:56:46;;;;;;;32.95;6.60;;;;;;;21.58;100.00;98135.09;5007563;28;20124;-60
2022/08/02 04:59:12;;;;;;;34.92;6.57;;;;;;;21.78;100.00;98130.78;5008742;28;20392;-61
2022/08/02 05:01:41;;;;;;;39.35;7.35;;;;;;;21.82;100.00;98126.03;5006027;28;20049;-60
2022/08/02 05:04:06;;;;;;;35.80;6.95;;;;;;;22.24;100.00;98116.19;5008325;28;20021;-60
2022/08/02 05:06:32;;;;;;;42.40;7.65;;;;;;;22.00;100.00;98129.78;5007541;28;20045;-60
2022/08/02 05:08:57;;;;;;;33.35;6.72;;;;;;;22.11;100.00;98129.69;5006914;28;20099;-61
2022/08/02 05:11:23;;;;;;;39.15;7.45;;;;;;;22.60;100.00;98129.06;5005634;28;20050;-61
2022/08/02 05:13:49;;;;;;;32.20;6.43;;;;;;;22.08;100.00;98124.63;5008546;28;20087;-61
2022/08/02 05:16:14;;;;;;;33.53;6.68;;;;;;;21.99;100.00;98136.03;5006866;28;20037;-62
2022/08/02 05:18:40;;;;;;;48.80;7.85;;;;;;;22.29;100.00;98127.25;5008091;28;20032;-60
2022/08/02 05:21:05;;;;;;;37.80;7.00;;;;;;;22.28;100.00;98128.25;5008995;28;20106;-60
2022/08/02 05:23:30;;;;;;;39.95;6.88;;;;;;;23.20;100.00;98123.72;5005900;28;20048;-60
2022/08/02 05:25:56;;;;;;;29.08;6.30;;;;;;;22.70;100.00;98132.59;5005512;28;20485;-60
2022/08/02 05:28:22;;;;;;;37.70;7.45;;;;;;;22.43;100.00;98131.38;5004610;28;20394;-61
2022/08/02 05:30:47;;;;;;;41.00;7.10;;;;;;;22.44;100.00;98132.22;5005728;28;20121;-60
2022/08/02 05:33:12;;;;;;;34.17;6.40;;;;;;;23.52;100.00;98128.72;5006577;28;20037;-63
2022/08/02 05:35:38;;;;;;;34.00;6.40;;;;;;;22.84;100.00;98139.31;5007443;28;20381;-60
2022/08/02 05:38:03;;;;;;;34.72;6.55;;;;;;;23.79;100.00;98140.47;5008907;28;20036;-60
2022/08/02 05:40:29;;;;;;;37.28;6.65;;;;;;;23.85;100.00;98137.28;5005759;28;20456;-63
2022/08/02 05:42:54;;;;;;;42.13;7.30;;;;;;;24.17;100.00;98136.91;5007310;28;20088;-61
2022/08/02 05:45:20;;;;;;;31.85;6.18;;;;;;;25.23;100.00;98124.97;5006209;28;20022;-60
2022/08/02 05:47:45;;;;;;;35.00;6.47;;;;;;;25.48;100.00;98128.72;5007504;28;20033;-61
2022/08/02 05:50:11;;;;;;;48.00;7.93;;;;;;;26.53;100.00;98126.88;5004827;28;20510;-60
2022/08/02 05:52:44;;;;;;;33.47;6.65;;;;;;;25.85;100.00;98133.00;5007794;28;20235;-60
2022/08/02 05:55:18;;;;;;;39.22;7.30;;;;;;;26.79;100.00;98136.69;5008536;28;20067;-60
2022/08/02 05:57:56;;;;;;;31.13;6.50;;;;;;;27.46;94.60;98137.50;5008236;28;20487;-60
2022/08/02 06:00:22;;;;;;;41.60;7.30;;;;;;;28.26;88.00;98138.59;5006086;28;20504;-60
2022/08/02 06:03:03;;;;;;;30.48;6.45;;;;;;;29.32;78.70;98134.59;5007411;28;20140;-60
2022/08/02 06:05:34;;;;;;;28.70;6.10;;;;;;;29.85;69.48;98136.50;5007027;28;20045;-59
2022/08/02 06:08:00;;;;;;;31.63;6.20;;;;;;;31.30;62.48;98134.09;5007842;28;20021;-60
2022/08/02 06:10:28;;;;;;;27.45;5.60;;;;;;;31.27;60.20;98134.47;5004236;28;20479;-60
2022/08/02 06:13:09;;;;;;;28.38;6.50;;;;;;;29.74;70.64;98125.19;5007317;28;20040;-60
2022/08/02 06:15:39;;;;;;;25.17;5.57;;;;;;;30.05;67.42;98128.75;5008128;28;20443;-60
2022/08/02 06:18:06;;;;;;;28.80;5.88;;;;;;;29.85;66.73;98133.81;5006573;28;20296;-61
2022/08/02 06:20:34;;;;;;;23.33;5.82;;;;;;;30.21;65.92;98130.44;5005104;28;20045;-60
2022/08/02 06:23:01;;;;;;;27.27;6.28;;;;;;;30.84;59.62;98133.53;5006684;28;21087;-62
2022/08/02 06:25:29;;;;;;;32.88;6.40;;;;;;;31.80;58.27;98133.28;5006125;28;20356;-61
2022/08/02 06:27:55;;;;;;;25.17;5.72;;;;;;;31.61;57.34;98130.22;5006777;28;20066;-60
2022/08/02 06:30:21;;;;;;;30.92;6.60;;;;;;;32.65;53.33;98131.38;5005897;28;20459;-62
2022/08/02 06:32:50;;;;;;;26.40;6.03;;;;;;;35.45;45.85;98124.78;5008036;28;20512;-61
2022/08/02 06:35:16;;;;;;;20.63;5.47;;;;;;;31.29;52.21;98127.00;5007974;28;20100;-60
2022/08/02 06:37:50;;;;;;;22.13;5.40;;;;;;;33.18;52.15;98128.84;5007427;28;20026;-61
2022/08/02 06:40:18;;;;;;;26.27;6.15;;;;;;;32.60;52.05;98139.22;5006269;28;20084;-61
2022/08/02 06:43:08;;;;;;;23.95;5.40;;;;;;;32.83;51.05;98138.91;5012412;28;20028;-60
2022/08/02 06:45:34;;;;;;;24.15;5.68;;;;;;;32.62;54.75;98137.16;5009553;28;20037;-60
2022/08/02 06:48:00;;;;;;;22.27;5.10;;;;;;;35.20;46.65;98138.31;5010329;28;20148;-60
2022/08/02 06:50:25;;;;;;;24.08;5.60;;;;;;;34.35;46.91;98137.41;5007848;28;20034;-62
2022/08/02 06:52:51;;;;;;;17.35;4.78;;;;;;;34.46;46.69;98138.59;5006948;28;20021;-61
2022/08/02 06:55:17;;;;;;;24.05;5.65;;;;;;;36.96;42.01;98140.84;5009892;28;20052;-60
2022/08/02 06:57:42;;;;;;;21.17;5.28;;;;;;;35.34;43.88;98139.88;5011860;28;20029;-61
2022/08/02 07:00:08;;;;;;;24.45;5.60;;;;;;;34.65;42.88;98141.44;5009385;28;20025;-63
2022/08/02 07:02:38;;;;;;;20.00;5.25;;;;;;;36.52;41.12;98135.50;5011035;28;20056;-61
2022/08/02 07:05:04;;;;;;;18.23;4.97;;;;;;;37.22;39.92;98145.94;5010820;28;20619;-61
2022/08/02 07:07:30;;;;;;;14.63;4.60;;;;;;;35.76;41.20;98142.13;5009568;28;20079;-61
2022/08/02 07:09:57;;;;;;;27.33;5.95;;;;;;;38.93;36.82;98137.91;5008848;28;20619;-61
2022/08/02 07:12:22;;;;;;;19.50;4.95;;;;;;;36.19;40.70;98142.16;5010309;28;20041;-61
2022/08/02 07:14:47;;;;;;;19.67;5.10;;;;;;;35.66;40.79;98131.72;5007779;28;20531;-61
2022/08/02 07:17:13;;;;;;;17.05;4.75;;;;;;;37.11;39.06;98129.56;5010199;28;20157;-62
2022/08/02 07:19:38;;;;;;;16.77;4.70;;;;;;;38.42;36.32;98126.78;5009382;28;20034;-62
2022/08/02 07:22:04;;;;;;;18.40;4.82;;;;;;;37.11;38.77;98115.94;5009415;28;20049;-61
2022/08/02 07:24:30;;;;;;;18.38;4.70;;;;;;;37.00;38.53;98110.25;5011006;28;20703;-61
2022/08/02 07:26:56;;;;;;;16.73;4.38;;;;;;;39.28;35.25;98113.22;5012379;28;20037;-62
2022/08/02 07:29:22;;;;;;;17.10;4.50;;;;;;;37.75;37.18;98114.34;5009446;28;20665;-63
2022/08/02 07:31:48;;;;;;;18.55;4.10;;;;;;;39.01;33.88;98109.47;5006615;28;20037;-61
2022/08/02 07:34:13;;;;;;;16.33;4.50;;;;;;;38.99;34.04;98104.22;5009528;28;20084;-62
2022/08/02 07:36:39;;;;;;;16.45;4.30;;;;;;;39.85;33.07;98100.50;5008009;28;20110;-61
2022/08/02 07:39:04;;;;;;;17.52;4.28;;;;;;;39.70;33.77;98098.34;5011505;28;20029;-61
2022/08/02 07:41:29;;;;;;;14.48;4.47;;;;;;;38.63;35.18;98105.44;5008487;28;20037;-62
2022/08/02 07:43:55;;;;;;;16.30;4.53;;;;;;;38.10;35.96;98097.22;5010575;28;20080;-61
2022/08/02 07:46:20;;;;;;;21.17;5.15;;;;;;;39.65;33.28;98104.59;5009968;28;20057;-61
2022/08/02 07:48:47;;;;;;;16.85;4.88;;;;;;;39.82;34.21;98099.09;5008107;28;20100;-64
2022/08/02 07:51:13;;;;;;;17.65;5.00;;;;;;;37.98;35.65;98090.94;5007276;28;20053;-63
2022/08/02 07:53:38;;;;;;;18.65;4.82;;;;;;;38.23;35.04;98100.75;5007495;28;20022;-62
2022/08/02 07:56:04;;;;;;;16.87;4.70;;;;;;;39.21;35.03;98096.19;5010237;28;20087;-63
2022/08/02 07:58:29;;;;;;;13.90;4.18;;;;;;;37.45;36.36;98095.38;5008367;28;20264;-62
2022/08/02 08:00:55;;;;;;;12.80;4.00;;;;;;;39.13;35.03;98096.56;5007382;28;20030;-64
2022/08/02 08:03:20;;;;;;;15.52;4.38;;;;;;;38.72;34.87;98099.34;5006537;28;20716;-62
2022/08/02 08:05:46;;;;;;;12.32;4.30;;;;;;;39.34;34.11;98100.50;5008470;28;20126;-62
2022/08/02 08:08:11;;;;;;;14.50;3.97;;;;;;;42.49;30.54;98098.22;5009642;28;20109;-61
2022/08/02 08:10:39;;;;;;;15.57;4.90;;;;;;;39.64;33.00;98100.19;5005879;28;20034;-63
2022/08/02 08:13:05;;;;;;;12.20;4.22;;;;;;;41.50;31.42;98092.34;5009092;28;20064;-62
2022/08/02 08:15:30;;;;;;;10.35;3.67;;;;;;;37.62;35.09;98095.53;5009850;28;20112;-62
2022/08/02 08:17:56;;;;;;;16.38;4.57;;;;;;;39.09;33.35;98100.88;5009428;28;20563;-63
2022/08/02 08:20:21;;;;;;;15.82;4.35;;;;;;;41.40;31.11;98104.06;5006382;28;20113;-62
2022/08/02 08:22:47;;;;;;;17.02;4.80;;;;;;;38.69;33.68;98101.72;5006222;28;20663;-64
2022/08/02 08:25:13;;;;;;;13.98;4.50;;;;;;;38.29;34.17;98097.06;5006775;28;20037;-62
2022/08/02 08:27:50;;;;;;;16.70;5.38;;;;;;;40.54;32.84;98097.38;5008081;28;20029;-62
2022/08/02 08:30:17;;;;;;;18.27;5.38;;;;;;;36.74;36.79;98108.72;5005659;28;20115;-62
2022/08/02 08:32:42;;;;;;;13.35;4.45;;;;;;;41.67;31.51;98106.78;5008360;28;20032;-62
2022/08/02 08:35:08;;;;;;;13.02;4.50;;;;;;;38.61;34.52;98113.03;5008185;28;20410;-62
2022/08/02 08:37:34;;;;;;;16.90;4.50;;;;;;;38.98;33.34;98112.63;5007020;28;20030;-62
2022/08/02 08:40:00;;;;;;;18.90;5.13;;;;;;;39.57;32.95;98104.97;5007983;28;20125;-63
2022/08/02 08:42:26;;;;;;;10.02;3.80;;;;;;;39.94;33.02;98112.66;5007417;28;20676;-61
2022/08/02 08:44:51;;;;;;;14.23;4.57;;;;;;;40.35;31.62;98113.28;5007949;28;20036;-62
2022/08/02 08:47:19;;;;;;;13.50;4.35;;;;;;;40.70;30.39;98112.06;5006799;28;20050;-63
2022/08/02 08:49:50;;;;;;;13.65;4.00;;;;;;;38.81;31.99;98101.69;5007906;28;20112;-61
2022/08/02 08:52:18;;;;;;;12.25;4.18;;;;;;;39.84;31.69;98104.31;5007765;28;20045;-62
2022/08/02 08:54:47;;;;;;;15.10;3.92;;;;;;;40.14;30.99;98105.84;5009081;28;20496;-63
2022/08/02 08:57:12;;;;;;;14.15;4.32;;;;;;;40.92;30.37;98103.00;5007741;28;20085;-61
2022/08/02 08:59:38;;;;;;;15.07;4.28;;;;;;;40.44;30.13;98098.09;5008471;28;20102;-61
2022/08/02 09:02:03;;;;;;;15.88;4.45;;;;;;;42.30;27.23;98101.41;5006161;28;20045;-64
2022/08/02 09:04:30;;;;;;;14.35;3.97;;;;;;;38.14;31.89;98103.84;5007741;28;20021;-62
2022/08/02 09:06:55;;;;;;;14.55;3.78;;;;;;;41.58;27.68;98100.09;5007025;28;20038;-61
2022/08/02 09:09:20;;;;;;;15.23;4.15;;;;;;;41.70;28.33;98102.66;5008502;28;20029;-62
2022/08/02 09:11:46;;;;;;;17.00;4.07;;;;;;;39.89;31.14;98107.13;5005093;28;20140;-61
2022/08/02 09:14:25;;;;;;;15.40;4.38;;;;;;;39.69;30.39;98108.47;5005480;28;20053;-61
2022/08/02 09:16:51;;;;;;;15.90;3.97;;;;;;;41.06;28.62;98112.47;5006857;28;20042;-62
2022/08/02 09:19:25;;;;;;;14.95;3.67;;;;;;;39.93;29.15;98113.75;5009211;28;20034;-63
2022/08/02 09:22:00;;;;;;;14.35;3.75;;;;;;;40.30;28.34;98104.97;5005682;28;20617;-61
2022/08/02 09:24:26;;;;;;;17.88;4.40;;;;;;;36.93;33.24;98097.81;5006676;28;20033;-64
2022/08/02 09:26:51;;;;;;;12.45;3.90;;;;;;;36.82;33.97;98102.16;5006560;28;20037;-61
2022/08/02 09:29:22;;;;;;;14.27;4.18;;;;;;;37.74;32.96;98099.09;5007279;28;20112;-61
2022/08/02 09:31:48;;;;;;;;;;;;;;;36.21;34.26;98095.75;5006284;28;20060;-61
2022/08/02 09:34:14;;;;;;;15.82;4.65;;;;;;;35.24;36.22;98101.59;5005229;28;19909;-62
2022/08/02 09:36:41;;;;;;;18.17;4.43;;;;;;;36.05;34.72;98102.59;5006454;28;20121;-62
2022/08/02 09:39:09;;;;;;;18.83;5.00;;;;;;;36.14;34.79;98095.81;5005251;28;20096;-61
2022/08/02 09:41:39;;;;;;;20.30;5.05;;;;;;;39.04;31.64;98095.31;5005418;28;20041;-61
2022/08/02 09:44:06;;;;;;;15.85;4.45;;;;;;;39.86;30.83;98100.25;5008417;28;20618;-61
2022/08/02 09:46:36;;;;;;;20.30;4.82;;;;;;;38.65;30.96;98089.66;5006063;28;20042;-60
2022/08/02 09:49:08;;;;;;;16.65;4.35;;;;;;;42.04;28.69;98083.16;5004383;28;20069;-61
2022/08/02 09:52:00;;;;;;;19.52;5.00;;;;;;;41.03;28.48;98083.72;5005150;28;20038;-63
2022/08/02 09:54:27;;;;;;;15.43;4.07;;;;;;;41.42;29.31;98080.00;5002605;28;20040;-61
2022/08/02 09:56:55;;;;;;;14.27;4.45;;;;;;;40.19;29.98;98086.81;5007256;28;20029;-61
2022/08/02 09:59:23;;;;;;;15.25;4.35;;;;;;;40.82;29.76;98074.47;5007456;28;20032;-61
2022/08/02 10:01:50;;;;;;;14.90;4.22;;;;;;;40.04;30.48;98071.88;5005601;28;20044;-63
2022/08/02 10:04:19;;;;;;;16.35;4.60;;;;;;;41.79;27.68;98060.00;5007884;28;20057;-61
2022/08/02 10:06:44;;;;;;;17.80;4.82;;;;;;;40.81;28.46;98061.09;5005935;28;20045;-61
2022/08/02 10:09:11;;;;;;;12.93;4.03;;;;;;;42.75;27.21;98067.03;5006961;28;20045;-61
2022/08/02 10:11:38;;;;;;;17.48;4.95;;;;;;;39.63;30.05;98064.94;5005821;28;20037;-61
2022/08/02 10:14:06;;;;;;;14.00;4.60;;;;;;;40.44;29.44;98065.28;5006560;28;20112;-61
2022/08/02 10:16:37;;;;;;;18.83;4.28;;;;;;;37.42;32.19;98060.47;5009264;28;20042;-61
2022/08/02 10:19:03;;;;;;;19.42;4.68;;;;;;;38.34;31.36;98059.03;5008753;28;20885;-61
2022/08/02 10:21:32;;;;;;;20.85;4.82;;;;;;;39.28;30.55;98047.75;5009349;28;20120;-62
2022/08/02 10:24:10;;;;;;;17.13;4.68;;;;;;;39.18;30.02;98047.56;5010438;28;20416;-62
2022/08/02 10:26:39;;;;;;;14.15;4.13;;;;;;;40.60;29.30;98051.78;5008309;28;20494;-63
2022/08/02 10:29:04;;;;;;;15.30;4.60;;;;;;;39.71;30.64;98046.25;5009212;28;20431;-61
2022/08/02 10:31:37;;;;;;;16.05;4.30;;;;;;;41.53;27.46;98045.31;5009534;28;20522;-63
2022/08/02 10:34:09;;;;;;;15.75;4.47;;;;;;;40.99;27.97;98048.94;5012358;28;20034;-60
2022/08/02 10:36:37;;;;;;;14.40;4.18;;;;;;;43.15;25.94;98055.59;5011686;28;20076;-60
2022/08/02 10:39:04;;;;;;;15.05;4.60;;;;;;;38.43;30.45;98056.78;5009717;28;20041;-60
2022/08/02 10:41:48;;;;;;;14.95;4.28;;;;;;;37.53;31.04;98045.22;5009450;28;20061;-60
2022/08/02 10:44:31;;;;;;;16.38;4.50;;;;;;;38.59;30.86;98045.13;5011639;28;20033;-59
2022/08/02 10:47:38;;;;;;;13.60;4.03;;;;;;;38.80;30.56;98049.06;5012157;28;20037;-59
2022/08/02 10:50:04;;;;;;;16.83;4.68;;;;;;;37.64;32.07;98044.44;5005273;28;20046;-61
2022/08/02 10:52:30;;;;;;;12.70;4.20;;;;;;;38.09;30.53;98046.56;5011776;28;20076;-61
2022/08/02 10:55:00;;;;;;;15.45;4.55;;;;;;;37.28;31.46;98046.28;5011986;28;20029;-61
2022/08/02 10:57:29;;;;;;;14.95;4.30;;;;;;;39.28;30.79;98046.91;5007235;28;20124;-61
2022/08/02 11:00:01;;;;;;;15.40;4.05;;;;;;;39.85;30.61;98038.53;5009013;28;20482;-61
2022/08/02 11:02:45;;;;;;;17.83;3.80;;;;;;;39.61;29.56;98032.47;5008405;28;20595;-61
2022/08/02 11:05:15;;;;;;;12.65;3.70;;;;;;;38.02;29.81;98028.66;5010015;28;20109;-62
2022/08/02 11:07:44;;;;;;;11.40;3.47;;;;;;;38.28;29.60;98027.31;5011067;28;20483;-62
2022/08/02 11:10:32;;;;;;;18.77;4.40;;;;;;;36.57;31.48;98024.28;5010177;28;20029;-62
2022/08/02 11:13:09;;;;;;;16.65;4.07;;;;;;;37.19;31.32;98020.50;5010176;28;20083;-62
2022/08/02 11:16:03;;;;;;;16.73;4.22;;;;;;;35.76;31.91;98026.25;5009443;28;20037;-62
2022/08/02 11:18:50;;;;;;;16.98;4.22;;;;;;;36.01;31.73;98014.50;5009004;28;20355;-62
2022/08/02 11:21:27;;;;;;;16.20;3.90;;;;;;;39.55;28.06;98022.53;5009330;28;20034;-60
2022/08/02 11:23:53;;;;;;;14.52;3.60;;;;;;;37.92;30.02;98007.47;5008693;28;20108;-62
2022/08/02 11:26:28;;;;;;;11.35;3.33;;;;;;;37.47;30.34;98011.63;5008472;28;21070;-61